Time;durP1;ratioP1;P1;durP2;ratioP2;P2;SDS_P1;SDS_P2;PMS_P1;PMS_P2;Temp;Humidity;BMP_temperature;BMP_pressure;BME280_temperature;BME280_humidity;BME280_pressure;Samples;Min_cycle;Max_cycle;Signal;HPM_P1;HPM_P2
2023/03/21 00:01:38;;;;;;;5.77;4.60;;;18.00;49.20;;;;;;5044701;28;20187;-45
2023/03/21 00:04:03;;;;;;;5.00;4.53;;;18.00;49.10;;;;;;5041526;28;20240;-45
2023/03/21 00:06:29;;;;;;;4.90;4.30;;;18.00;49.00;;;;;;5040978;28;20286;-45
2023/03/21 00:08:55;;;;;;;5.80;3.60;;;18.00;49.10;;;;;;5036004;28;20201;-46
2023/03/21 00:11:20;;;;;;;4.47;3.77;;;17.90;49.20;;;;;;5037359;28;20442;-46
2023/03/21 00:13:46;;;;;;;5.10;4.70;;;17.90;49.20;;;;;;5036666;28;20620;-45
2023/03/21 00:16:15;;;;;;;5.60;4.40;;;17.90;49.30;;;;;;5042931;28;20196;-47
2023/03/21 00:18:45;;;;;;;5.60;4.23;;;17.90;49.20;;;;;;5039343;28;20208;-46
2023/03/21 00:21:14;;;;;;;5.10;4.30;;;17.90;49.40;;;;;;5040634;28;20817;-46
2023/03/21 00:23:40;;;;;;;5.53;4.67;;;17.90;49.40;;;;;;5037641;28;20991;-45
2023/03/21 00:26:08;;;;;;;4.20;3.80;;;17.90;49.30;;;;;;5034945;28;20440;-45
2023/03/21 00:28:43;;;;;;;5.43;4.40;;;17.90;49.30;;;;;;5041269;28;20447;-45
2023/03/21 00:31:09;;;;;;;4.57;4.17;;;17.90;49.20;;;;;;5039520;28;20442;-46
2023/03/21 00:33:37;;;;;;;5.00;4.60;;;17.90;49.40;;;;;;5041667;28;20455;-46
2023/03/21 00:36:04;;;;;;;5.03;4.53;;;18.00;49.40;;;;;;5038667;28;20280;-45
2023/03/21 00:38:30;;;;;;;5.27;4.50;;;17.90;49.20;;;;;;5040099;28;20438;-45
2023/03/21 00:40:55;;;;;;;6.13;4.60;;;17.90;49.60;;;;;;5039931;28;20430;-45
2023/03/21 00:43:28;;;;;;;4.83;4.40;;;17.80;49.40;;;;;;5040382;28;20853;-45
2023/03/21 00:45:56;;;;;;;5.27;4.50;;;17.80;49.70;;;;;;5044505;28;21014;-45
2023/03/21 00:48:22;;;;;;;4.23;3.83;;;17.80;49.80;;;;;;5043540;28;20442;-45
2023/03/21 00:50:51;;;;;;;4.60;4.07;;;17.80;49.80;;;;;;5040974;28;20438;-46
2023/03/21 00:53:17;;;;;;;6.50;4.43;;;17.80;49.80;;;;;;5039555;28;20192;-45
2023/03/21 00:55:43;;;;;;;5.30;4.50;;;17.80;49.80;;;;;;5039883;28;20466;-45
2023/03/21 00:58:09;;;;;;;4.40;4.00;;;17.80;49.80;;;;;;5042482;28;20467;-45
2023/03/21 01:00:36;;;;;;;6.20;4.27;;;17.80;49.80;;;;;;5037476;28;20276;-45
2023/03/21 01:03:06;;;;;;;6.67;4.30;;;17.70;49.90;;;;;;5038760;28;20683;-46
2023/03/21 01:08:28;;;;;;;6.37;4.70;;;17.60;49.90;;;;;;5038811;28;21145;-44
2023/03/21 01:10:54;;;;;;;7.37;4.63;;;17.00;51.00;;;;;;5042190;28;20455;-45
2023/03/21 01:13:23;;;;;;;4.73;4.27;;;17.00;51.50;;;;;;5038986;28;20443;-45
2023/03/21 01:15:51;;;;;;;4.97;4.07;;;17.20;51.40;;;;;;5044859;28;20537;-48
2023/03/21 01:18:20;;;;;;;5.20;4.63;;;17.30;51.10;;;;;;5038600;28;20443;-46
2023/03/21 01:20:46;;;;;;;5.07;4.00;;;17.40;51.00;;;;;;5050256;28;20451;-45
2023/03/21 01:23:14;;;;;;;4.50;3.87;;;17.50;50.90;;;;;;5041923;28;20576;-44
2023/03/21 01:25:40;;;;;;;9.33;4.07;;;17.50;50.60;;;;;;5039998;28;20442;-46
2023/03/21 01:28:06;;;;;;;5.57;4.27;;;17.50;50.50;;;;;;5039303;28;21028;-44
2023/03/21 01:30:32;;;;;;;5.10;3.50;;;17.40;50.60;;;;;;5040035;28;20276;-44
2023/03/21 01:32:58;;;;;;;5.40;3.80;;;17.40;50.60;;;;;;5047438;28;20953;-45
2023/03/21 01:35:24;;;;;;;6.83;4.47;;;17.40;50.70;;;;;;5037867;28;20541;-45
2023/03/21 01:37:50;;;;;;;6.20;4.20;;;17.30;50.90;;;;;;5047627;28;20278;-46
2023/03/21 01:40:19;;;;;;;4.70;4.17;;;17.30;50.90;;;;;;5047026;28;20192;-47
2023/03/21 01:42:44;;;;;;;7.17;4.40;;;17.30;50.70;;;;;;5028040;28;20448;-44
2023/03/21 01:45:48;;;;;;;4.60;4.20;;;17.30;50.80;;;;;;5048210;28;20446;-45
2023/03/21 01:48:14;;;;;;;5.43;4.67;;;17.40;50.90;;;;;;5037351;28;20553;-46
2023/03/21 01:50:41;;;;;;;6.13;4.63;;;17.30;51.10;;;;;;5044617;28;20447;-50
2023/03/21 01:53:08;;;;;;;4.47;4.07;;;17.30;51.10;;;;;;5040898;28;20467;-45
2023/03/21 01:55:35;;;;;;;6.73;4.47;;;17.30;51.00;;;;;;5045159;28;20473;-45
2023/03/21 01:58:03;;;;;;;5.73;4.97;;;17.20;51.20;;;;;;5036406;28;20915;-46
2023/03/21 02:00:30;;;;;;;5.27;4.77;;;17.30;51.00;;;;;;5035512;28;20596;-45
2023/03/21 02:02:58;;;;;;;5.00;4.60;;;17.30;51.00;;;;;;5037073;28;20872;-45
2023/03/21 02:05:38;;;;;;;5.10;4.60;;;17.40;51.10;;;;;;5037137;28;20535;-45
2023/03/21 02:08:03;;;;;;;5.20;4.03;;;17.30;50.60;;;;;;5036718;28;20447;-45
2023/03/21 02:10:31;;;;;;;5.23;4.73;;;17.30;51.10;;;;;;5035093;28;20443;-44
2023/03/21 02:13:08;;;;;;;5.20;4.70;;;17.30;51.20;;;;;;5042671;28;20193;-45
2023/03/21 02:15:37;;;;;;;8.30;4.53;;;17.30;51.00;;;;;;5037693;28;20448;-44
2023/03/21 02:18:26;;;;;;;4.00;3.60;;;17.30;51.10;;;;;;5043866;28;20523;-44
2023/03/21 02:21:17;;;;;;;4.57;4.17;;;17.30;51.10;;;;;;5034167;28;20444;-45
2023/03/21 02:24:10;;;;;;;4.80;4.40;;;17.30;51.10;;;;;;5042274;28;20491;-45
2023/03/21 02:27:01;;;;;;;4.63;4.00;;;17.30;51.00;;;;;;5043758;28;20526;-47
2023/03/21 02:29:47;;;;;;;5.30;4.10;;;17.30;51.10;;;;;;5048402;28;20511;-45
2023/03/21 02:32:33;;;;;;;5.47;4.97;;;17.30;51.10;;;;;;5033987;28;20448;-44
2023/03/21 02:35:12;;;;;;;3.97;3.57;;;17.40;50.80;;;;;;5042986;28;20508;-45
2023/03/21 02:38:02;;;;;;;6.30;4.37;;;17.50;51.50;;;;;;5044432;28;20438;-46
2023/03/21 02:40:48;;;;;;;7.20;4.67;;;17.20;50.40;;;;;;5044301;28;20532;-46
2023/03/21 02:43:34;;;;;;;4.90;3.97;;;16.80;51.50;;;;;;5042693;28;20537;-45
2023/03/21 02:46:20;;;;;;;5.70;4.10;;;16.70;52.30;;;;;;5038185;28;20499;-45
2023/03/21 02:49:15;;;;;;;4.77;3.40;;;16.80;52.10;;;;;;5033138;28;20456;-46
2023/03/21 02:51:43;;;;;;;6.13;4.77;;;16.80;52.00;;;;;;5011106;28;20928;-44
2023/03/21 02:54:16;;;;;;;5.07;3.90;;;16.90;51.80;;;;;;5043165;28;20875;-46
2023/03/21 02:56:45;;;;;;;4.40;4.00;;;17.00;51.70;;;;;;5039471;28;20470;-44
2023/03/21 02:59:13;;;;;;;4.77;4.27;;;17.00;51.70;;;;;;5043516;28;20440;-46
2023/03/21 03:01:39;;;;;;;4.37;3.87;;;17.10;51.70;;;;;;5037802;28;20435;-45
2023/03/21 03:04:20;;;;;;;6.80;4.20;;;17.10;51.40;;;;;;5040834;28;20486;-45
2023/03/21 03:07:02;;;;;;;5.50;3.90;;;17.10;51.20;;;;;;5045810;28;20551;-45
2023/03/21 03:09:39;;;;;;;4.17;3.57;;;17.10;51.20;;;;;;5037932;28;20439;-45
2023/03/21 03:12:19;;;;;;;4.20;3.37;;;17.10;51.10;;;;;;5041402;28;20459;-45
2023/03/21 03:14:52;;;;;;;3.53;3.23;;;17.10;51.20;;;;;;5038585;28;20455;-44
2023/03/21 03:17:25;;;;;;;4.67;4.00;;;17.10;51.20;;;;;;5034884;28;20510;-44
2023/03/21 03:20:09;;;;;;;4.83;4.37;;;17.00;51.50;;;;;;5039291;28;20811;-45
2023/03/21 03:23:06;;;;;;;5.10;3.50;;;16.90;51.50;;;;;;5040907;28;20444;-45
2023/03/21 03:25:47;;;;;;;4.80;4.30;;;17.00;51.70;;;;;;5035673;28;20538;-45
2023/03/21 03:28:16;;;;;;;5.37;4.87;;;16.90;51.60;;;;;;5039542;28;20454;-45
2023/03/21 03:30:43;;;;;;;3.50;2.93;;;16.90;51.70;;;;;;5047774;28;20538;-45
2023/03/21 03:33:10;;;;;;;3.97;3.57;;;17.00;51.40;;;;;;5031799;28;20439;-45
2023/03/21 03:35:36;;;;;;;5.00;3.47;;;16.90;51.30;;;;;;5038983;28;20521;-44
2023/03/21 03:38:05;;;;;;;9.00;3.70;;;16.80;51.70;;;;;;5034047;28;20534;-47
2023/03/21 03:40:40;;;;;;;6.90;4.60;;;16.90;51.80;;;;;;5032786;28;20190;-48
2023/03/21 03:43:21;;;;;;;4.33;3.93;;;16.70;51.70;;;;;;5036773;28;20474;-44
2023/03/21 03:45:51;;;;;;;3.87;3.57;;;16.70;52.10;;;;;;5042935;28;20447;-45
2023/03/21 03:48:32;;;;;;;8.60;4.20;;;16.60;52.10;;;;;;5042691;28;20443;-44
2023/03/21 03:51:06;;;;;;;4.70;4.00;;;16.70;52.20;;;;;;5039506;28;20453;-46
2023/03/21 03:53:31;;;;;;;5.57;4.00;;;16.70;51.90;;;;;;5036757;28;20804;-45
2023/03/21 03:55:59;;;;;;;4.20;3.80;;;16.80;52.20;;;;;;5036851;28;20470;-45
2023/03/21 03:58:26;;;;;;;4.83;4.43;;;16.80;51.90;;;;;;5040348;28;20201;-45
2023/03/21 04:00:53;;;;;;;6.30;4.70;;;16.80;51.90;;;;;;5043148;28;20439;-44
2023/03/21 04:03:19;;;;;;;5.00;4.50;;;16.80;51.90;;;;;;5036458;28;20482;-44
2023/03/21 04:05:45;;;;;;;7.50;3.90;;;16.80;51.90;;;;;;5042150;28;20448;-48
2023/03/21 04:08:12;;;;;;;4.53;4.13;;;16.80;51.90;;;;;;5042279;28;21016;-46
2023/03/21 04:10:39;;;;;;;6.87;4.17;;;16.70;52.10;;;;;;5043777;28;20289;-45
2023/03/21 04:13:05;;;;;;;4.83;4.43;;;16.70;52.20;;;;;;5027667;28;20735;-45
2023/03/21 04:15:30;;;;;;;5.30;4.80;;;16.70;52.20;;;;;;5042084;28;22049;-45
2023/03/21 04:17:56;;;;;;;4.60;4.20;;;16.70;52.00;;;;;;5040612;28;20306;-45
2023/03/21 04:20:22;;;;;;;4.87;4.17;;;16.70;51.90;;;;;;5041663;28;20283;-44
2023/03/21 04:22:47;;;;;;;5.80;4.40;;;16.70;51.90;;;;;;5040224;28;21148;-45
2023/03/21 04:25:13;;;;;;;5.10;4.70;;;16.70;52.10;;;;;;5052915;28;20192;-46
2023/03/21 04:27:39;;;;;;;4.40;4.00;;;16.70;52.00;;;;;;5044920;28;20196;-46
2023/03/21 04:30:06;;;;;;;4.33;3.93;;;16.80;51.90;;;;;;5047230;28;20645;-46
2023/03/21 04:32:32;;;;;;;5.00;3.97;;;16.90;52.00;;;;;;5038373;28;20500;-46
2023/03/21 04:34:59;;;;;;;4.30;3.93;;;16.90;51.80;;;;;;5038745;28;20512;-46
2023/03/21 04:37:26;;;;;;;6.20;4.73;;;17.00;51.60;;;;;;5036122;28;20450;-45
2023/03/21 04:39:52;;;;;;;4.77;4.27;;;17.00;51.40;;;;;;5041410;28;20496;-45
2023/03/21 04:42:18;;;;;;;4.93;4.47;;;17.00;50.90;;;;;;5043034;28;20949;-45
2023/03/21 04:44:47;;;;;;;5.70;5.17;;;17.00;51.00;;;;;;5044135;28;20220;-44
2023/03/21 04:47:14;;;;;;;4.73;4.07;;;16.90;51.10;;;;;;5037678;28;20251;-46
2023/03/21 04:49:40;;;;;;;5.00;4.50;;;16.40;52.00;;;;;;5042545;28;20451;-45
2023/03/21 04:52:06;;;;;;;5.17;4.67;;;16.00;53.70;;;;;;5041505;28;20477;-46
2023/03/21 04:54:32;;;;;;;5.93;5.40;;;15.80;53.40;;;;;;5042181;28;21163;-46
2023/03/21 04:56:58;;;;;;;6.67;5.10;;;15.70;54.00;;;;;;5038051;28;20244;-46
2023/03/21 04:59:24;;;;;;;5.70;4.80;;;15.60;54.10;;;;;;5045145;28;20200;-45
2023/03/21 05:01:50;;;;;;;7.30;4.83;;;15.50;54.40;;;;;;5040455;28;20453;-46
2023/03/21 05:04:16;;;;;;;5.50;4.87;;;15.50;54.50;;;;;;5037668;28;20510;-44
2023/03/21 05:06:43;;;;;;;5.87;4.87;;;15.30;54.70;;;;;;5041273;28;20438;-45
2023/03/21 05:09:09;;;;;;;6.30;5.57;;;15.40;54.80;;;;;;5052965;28;20454;-46
2023/03/21 05:11:36;;;;;;;5.93;5.43;;;15.30;54.90;;;;;;5050831;28;20486;-47
2023/03/21 05:14:10;;;;;;;6.10;4.70;;;15.20;55.50;;;;;;5038803;28;20447;-46
2023/03/21 05:16:37;;;;;;;10.03;5.00;;;15.30;55.20;;;;;;5044301;28;20463;-45
2023/03/21 05:19:03;;;;;;;4.53;4.13;;;15.10;55.30;;;;;;5047181;28;20797;-44
2023/03/21 05:21:32;;;;;;;5.90;4.10;;;15.00;55.70;;;;;;5040296;28;20436;-47
2023/03/21 05:24:02;;;;;;;4.63;4.17;;;15.00;55.80;;;;;;5043921;28;20236;-44
2023/03/21 05:26:28;;;;;;;6.63;4.70;;;14.90;56.10;;;;;;5039899;28;20533;-44
2023/03/21 05:28:54;;;;;;;6.60;4.57;;;14.60;56.50;;;;;;5042791;28;20866;-45
2023/03/21 05:31:20;;;;;;;8.30;4.37;;;14.50;56.90;;;;;;5041751;28;20470;-45
2023/03/21 05:33:46;;;;;;;8.40;6.53;;;14.50;57.10;;;;;;5044064;28;20204;-44
2023/03/21 05:36:13;;;;;;;7.03;5.60;;;14.50;57.00;;;;;;5038043;28;20459;-45
2023/03/21 05:38:41;;;;;;;8.50;4.43;;;14.60;57.10;;;;;;5038595;28;20456;-44
2023/03/21 05:41:07;;;;;;;5.60;4.30;;;14.60;57.10;;;;;;5044939;28;20455;-47
2023/03/21 05:43:33;;;;;;;5.33;4.67;;;14.30;57.90;;;;;;5041338;28;20526;-46
2023/03/21 05:45:58;;;;;;;6.33;4.77;;;14.10;58.30;;;;;;5037666;28;20504;-44
2023/03/21 05:48:24;;;;;;;5.90;4.97;;;14.10;58.40;;;;;;5034577;28;20251;-44
2023/03/21 05:50:50;;;;;;;4.87;4.00;;;14.20;58.30;;;;;;5038154;28;20898;-44
2023/03/21 05:53:15;;;;;;;4.70;4.10;;;14.20;58.20;;;;;;5037559;28;20575;-45
2023/03/21 05:55:41;;;;;;;5.37;4.50;;;14.30;58.00;;;;;;5037103;28;20237;-44
2023/03/21 05:58:06;;;;;;;4.67;4.27;;;14.40;57.80;;;;;;5045354;28;20518;-44
2023/03/21 06:00:32;;;;;;;5.83;4.57;;;14.60;57.50;;;;;;5035356;28;20200;-44
2023/03/21 06:02:58;;;;;;;7.00;4.43;;;14.60;57.30;;;;;;5045926;28;20189;-44
2023/03/21 06:05:23;;;;;;;5.10;4.60;;;14.50;57.50;;;;;;5041241;28;20262;-46
2023/03/21 06:07:49;;;;;;;5.20;4.10;;;14.40;57.80;;;;;;5041986;28;20718;-45
2023/03/21 06:10:15;;;;;;;6.40;4.57;;;14.50;58.60;;;;;;5040154;28;20221;-44
2023/03/21 06:12:42;;;;;;;4.80;4.20;;;14.70;58.30;;;;;;5041833;28;20279;-45
2023/03/21 06:15:07;;;;;;;5.63;4.27;;;15.00;58.10;;;;;;5036337;28;20193;-44
2023/03/21 06:17:33;;;;;;;5.20;3.60;;;15.20;57.30;;;;;;5043843;28;21060;-44
2023/03/21 06:20:03;;;;;;;4.80;3.80;;;15.30;56.60;;;;;;5044230;28;20467;-45
2023/03/21 06:22:30;;;;;;;5.47;3.70;;;15.30;56.50;;;;;;5031520;28;20276;-44
2023/03/21 06:24:56;;;;;;;4.43;3.70;;;15.40;56.30;;;;;;5044281;28;20485;-44
2023/03/21 06:27:21;;;;;;;6.07;4.40;;;15.50;56.00;;;;;;5049668;28;20529;-44
2023/03/21 06:29:47;;;;;;;7.67;4.50;;;15.50;55.90;;;;;;5041644;28;20320;-44
2023/03/21 06:32:13;;;;;;;4.90;3.83;;;15.50;55.90;;;;;;5041440;28;20195;-45
2023/03/21 06:34:39;;;;;;;5.27;3.73;;;15.60;55.80;;;;;;5046821;28;20216;-45
2023/03/21 06:37:05;;;;;;;5.33;4.33;;;15.70;55.50;;;;;;5042901;28;20197;-47
2023/03/21 06:39:32;;;;;;;5.60;4.10;;;15.70;55.50;;;;;;5042186;28;20451;-46
2023/03/21 06:41:58;;;;;;;9.03;4.57;;;15.80;55.30;;;;;;5050314;28;20287;-44
2023/03/21 06:44:34;;;;;;;5.57;4.13;;;15.80;54.90;;;;;;5041945;28;20529;-46
2023/03/21 06:47:00;;;;;;;5.20;4.10;;;15.80;55.00;;;;;;5043989;28;20443;-46
2023/03/21 06:49:26;;;;;;;4.33;3.93;;;15.80;55.00;;;;;;5042374;28;20538;-44
2023/03/21 06:51:52;;;;;;;4.87;4.03;;;15.90;54.90;;;;;;5042192;28;20205;-44
2023/03/21 06:54:17;;;;;;;5.57;4.70;;;16.00;54.80;;;;;;5039063;28;20201;-45
2023/03/21 06:56:44;;;;;;;5.30;3.60;;;16.10;54.50;;;;;;5044177;28;20197;-44
2023/03/21 06:59:09;;;;;;;5.10;4.60;;;16.10;54.20;;;;;;5039328;28;20193;-45
2023/03/21 07:01:35;;;;;;;6.27;5.30;;;16.20;54.30;;;;;;5047029;28;20981;-44
2023/03/21 07:04:01;;;;;;;4.80;4.10;;;16.00;54.10;;;;;;5045761;28;20224;-45
2023/03/21 07:06:27;;;;;;;5.57;4.93;;;16.00;54.80;;;;;;5042366;28;20197;-45
2023/03/21 07:08:54;;;;;;;6.00;4.07;;;16.10;54.70;;;;;;5038299;28;20314;-44
2023/03/21 07:11:21;;;;;;;5.13;4.73;;;16.30;54.40;;;;;;5048110;28;20596;-46
2023/03/21 07:13:47;;;;;;;6.63;4.00;;;16.30;54.10;;;;;;5042813;28;20454;-44
2023/03/21 07:16:14;;;;;;;7.73;4.40;;;16.20;54.10;;;;;;5050048;28;20434;-44
2023/03/21 07:18:40;;;;;;;5.30;4.80;;;16.10;54.20;;;;;;5049789;28;20434;-44
2023/03/21 07:21:07;;;;;;;4.90;4.20;;;16.10;53.90;;;;;;5050274;28;20942;-44
2023/03/21 07:23:33;;;;;;;7.57;4.30;;;16.20;53.90;;;;;;5050021;28;20906;-45
2023/03/21 07:25:59;;;;;;;5.73;4.80;;;16.20;53.80;;;;;;5049673;28;20451;-44
2023/03/21 07:28:26;;;;;;;4.73;4.30;;;16.30;53.50;;;;;;5048210;28;20806;-46
2023/03/21 07:30:54;;;;;;;4.10;3.70;;;16.20;53.30;;;;;;5050093;28;21153;-44
2023/03/21 07:33:20;;;;;;;4.73;4.30;;;16.30;53.10;;;;;;5050172;28;20435;-45
2023/03/21 07:35:45;;;;;;;3.90;3.60;;;16.20;53.30;;;;;;5050971;28;21015;-45
2023/03/21 07:38:13;;;;;;;4.60;4.00;;;16.40;53.60;;;;;;5047852;28;20431;-44
2023/03/21 07:40:39;;;;;;;3.90;3.57;;;16.70;52.60;;;;;;5049847;28;20664;-45
2023/03/21 07:43:04;;;;;;;4.90;3.47;;;17.00;52.30;;;;;;5049804;28;20427;-44
2023/03/21 07:45:30;;;;;;;5.00;3.70;;;17.20;51.20;;;;;;5052371;28;20203;-45
2023/03/21 07:47:55;;;;;;;4.03;3.63;;;17.40;50.50;;;;;;5053093;28;20250;-45
2023/03/21 07:50:21;;;;;;;4.20;3.70;;;17.40;50.00;;;;;;5054051;28;20758;-45
2023/03/21 07:52:47;;;;;;;3.50;3.20;;;17.50;49.90;;;;;;5054108;28;20200;-45
2023/03/21 07:55:13;;;;;;;4.40;3.00;;;17.70;50.00;;;;;;5052480;28;20239;-46
2023/03/21 07:57:39;;;;;;;5.00;3.30;;;17.80;50.10;;;;;;5053700;28;20201;-44
2023/03/21 08:00:06;;;;;;;4.00;3.37;;;17.50;48.70;;;;;;5054438;28;20276;-46
2023/03/21 08:02:31;;;;;;;4.50;4.10;;;17.20;50.30;;;;;;5053995;28;20530;-46
2023/03/21 08:04:57;;;;;;;3.50;3.30;;;17.50;50.20;;;;;;5053200;28;21037;-45
2023/03/21 08:07:23;;;;;;;3.37;2.90;;;17.60;49.40;;;;;;5053855;28;20184;-45
2023/03/21 08:09:49;;;;;;;3.60;3.23;;;17.80;49.00;;;;;;5053429;28;20301;-45
2023/03/21 08:12:15;;;;;;;5.60;3.30;;;18.10;48.70;;;;;;5053525;28;20215;-45
2023/03/21 08:14:41;;;;;;;6.07;3.60;;;18.30;47.90;;;;;;5052381;28;20289;-51
2023/03/21 08:17:08;;;;;;;3.90;3.37;;;18.50;47.40;;;;;;5052522;28;20511;-45
2023/03/21 08:19:34;;;;;;;5.17;3.57;;;18.60;46.60;;;;;;5053216;28;20204;-45
2023/03/21 08:22:01;;;;;;;3.67;3.23;;;18.80;46.40;;;;;;5052223;28;20526;-45
2023/03/21 08:24:27;;;;;;;4.53;3.37;;;18.90;45.90;;;;;;5053585;28;20486;-45
2023/03/21 08:26:53;;;;;;;5.03;3.60;;;18.90;45.70;;;;;;5053510;28;20518;-44
2023/03/21 08:29:20;;;;;;;5.50;3.27;;;18.60;46.00;;;;;;5053447;28;20447;-44
2023/03/21 08:31:46;;;;;;;3.43;3.13;;;18.50;46.40;;;;;;5053361;28;20195;-44
2023/03/21 08:34:12;;;;;;;4.47;3.50;;;18.50;46.70;;;;;;5053384;28;20427;-45
2023/03/21 08:36:38;;;;;;;4.00;3.70;;;18.70;46.40;;;;;;5053244;28;20204;-45
2023/03/21 08:39:04;;;;;;;3.67;3.37;;;18.80;46.40;;;;;;5055727;28;20433;-46
2023/03/21 08:41:35;;;;;;;4.73;3.27;;;18.40;46.90;;;;;;5051011;28;20188;-46
2023/03/21 08:44:01;;;;;;;3.50;3.07;;;18.50;46.30;;;;;;5052958;28;20573;-45
2023/03/21 08:46:27;;;;;;;3.33;3.03;;;18.70;46.60;;;;;;5053220;28;20904;-45
2023/03/21 08:48:53;;;;;;;4.10;3.23;;;18.80;46.50;;;;;;5052574;28;20189;-45
2023/03/21 08:51:19;;;;;;;3.93;3.17;;;19.00;45.50;;;;;;5051494;28;20554;-46
2023/03/21 08:53:45;;;;;;;4.50;3.10;;;19.00;45.10;;;;;;5052913;28;20443;-45
2023/03/21 08:56:11;;;;;;;7.40;2.90;;;19.30;45.20;;;;;;5052676;28;20478;-45
2023/03/21 08:58:37;;;;;;;3.97;3.47;;;19.30;44.70;;;;;;5052475;28;20220;-44
2023/03/21 09:01:05;;;;;;;3.70;3.23;;;19.20;44.90;;;;;;5054499;28;20228;-45
2023/03/21 09:03:31;;;;;;;3.30;3.00;;;19.30;44.70;;;;;;5053293;28;20573;-46
2023/03/21 09:05:57;;;;;;;4.20;3.40;;;19.20;44.50;;;;;;5052130;28;21018;-46
2023/03/21 09:08:23;;;;;;;3.90;3.10;;;19.40;44.60;;;;;;5052644;28;20262;-46
2023/03/21 09:10:53;;;;;;;2.43;2.23;;;19.60;44.40;;;;;;5051998;28;20423;-49
2023/03/21 09:13:19;;;;;;;2.87;2.60;;;19.80;44.00;;;;;;5041831;28;20238;-45
2023/03/21 09:15:45;;;;;;;2.50;2.30;;;20.00;43.60;;;;;;5053899;28;20532;-46
2023/03/21 09:18:16;;;;;;;2.50;2.27;;;20.30;43.40;;;;;;5048859;28;20928;-47
2023/03/21 09:20:45;;;;;;;2.80;2.53;;;20.30;42.80;;;;;;5047174;28;20219;-46
2023/03/21 09:23:12;;;;;;;2.60;2.40;;;20.00;42.30;;;;;;5040007;28;20558;-47
2023/03/21 09:25:38;;;;;;;2.90;2.60;;;20.10;42.50;;;;;;5040812;28;20527;-45
2023/03/21 09:28:05;;;;;;;3.73;2.40;;;20.20;41.80;;;;;;5049360;28;20815;-45
2023/03/21 09:30:33;;;;;;;5.23;3.30;;;20.20;41.90;;;;;;5057581;28;20455;-45
2023/03/21 09:33:00;;;;;;;3.37;2.50;;;20.50;42.10;;;;;;5046395;28;20474;-45
2023/03/21 09:35:27;;;;;;;3.10;2.50;;;20.30;42.30;;;;;;5044296;28;20443;-46
2023/03/21 09:37:53;;;;;;;2.70;2.50;;;20.60;41.40;;;;;;5039318;28;20449;-46
2023/03/21 09:40:57;;;;;;;3.30;2.60;;;20.90;41.40;;;;;;5039566;28;20443;-46
2023/03/21 09:43:30;;;;;;;2.83;2.50;;;21.10;39.50;;;;;;5035515;28;20486;-46
2023/03/21 09:45:56;;;;;;;2.87;2.63;;;21.20;38.50;;;;;;5040146;28;20456;-45
2023/03/21 09:48:53;;;;;;;3.33;2.20;;;21.40;38.30;;;;;;5043748;28;20447;-46
2023/03/21 09:51:20;;;;;;;2.87;2.03;;;21.60;38.00;;;;;;5013192;28;20200;-46
2023/03/21 09:53:48;;;;;;;2.33;2.13;;;21.10;37.00;;;;;;5047065;28;20483;-46
2023/03/21 09:56:15;;;;;;;2.50;2.30;;;21.00;37.80;;;;;;5039666;28;20491;-45
2023/03/21 09:58:51;;;;;;;7.40;2.73;;;21.20;36.80;;;;;;5033200;28;20487;-47
2023/03/21 10:01:33;;;;;;;2.33;2.13;;;21.10;36.90;;;;;;5045799;28;20460;-45
2023/03/21 10:04:06;;;;;;;2.00;1.90;;;21.20;37.10;;;;;;5040405;28;20529;-45
2023/03/21 10:06:38;;;;;;;2.10;1.90;;;21.20;36.40;;;;;;5040265;28;20474;-46
2023/03/21 10:09:21;;;;;;;2.50;1.63;;;21.40;37.80;;;;;;5035006;28;20494;-48
2023/03/21 10:12:00;;;;;;;3.03;2.00;;;21.60;36.30;;;;;;5034534;28;20449;-46
2023/03/21 10:14:28;;;;;;;2.80;1.83;;;21.60;35.80;;;;;;5039921;28;20927;-46
2023/03/21 10:17:22;;;;;;;2.13;1.80;;;21.90;35.30;;;;;;5039189;28;20446;-45
2023/03/21 10:20:10;;;;;;;4.57;3.10;;;22.20;35.60;;;;;;5045400;28;20439;-46
2023/03/21 10:22:36;;;;;;;2.93;2.63;;;21.70;34.60;;;;;;5036680;28;20459;-46
2023/03/21 10:25:03;;;;;;;2.37;2.07;;;21.50;35.50;;;;;;5040795;28;20521;-46
2023/03/21 10:27:30;;;;;;;1.70;1.60;;;21.60;35.60;;;;;;5038571;28;20439;-45
2023/03/21 10:29:56;;;;;;;2.43;2.23;;;21.90;35.20;;;;;;5038152;28;20456;-46
2023/03/21 10:32:22;;;;;;;2.63;2.00;;;22.00;35.80;;;;;;5042485;28;20446;-48
2023/03/21 10:34:54;;;;;;;2.80;2.03;;;22.00;36.00;;;;;;5039124;28;20454;-45
2023/03/21 10:37:21;;;;;;;2.53;2.20;;;22.00;36.00;;;;;;5035787;28;20220;-49
2023/03/21 10:39:52;;;;;;;2.03;1.73;;;22.00;35.60;;;;;;5037044;28;20440;-45
2023/03/21 10:42:23;;;;;;;5.03;2.50;;;21.90;36.30;;;;;;5029727;28;20565;-47
2023/03/21 10:44:51;;;;;;;3.47;2.33;;;21.80;36.30;;;;;;5039385;28;20495;-46
2023/03/21 10:47:27;;;;;;;2.50;2.27;;;22.00;36.40;;;;;;5035855;28;20458;-46
2023/03/21 10:49:53;;;;;;;2.77;2.20;;;22.20;36.30;;;;;;5044654;28;20443;-50
2023/03/21 10:52:21;;;;;;;2.20;2.00;;;22.40;36.50;;;;;;5034527;28;20518;-47
2023/03/21 10:54:48;;;;;;;2.37;2.17;;;22.50;37.50;;;;;;5038454;28;20495;-45
2023/03/21 10:57:22;;;;;;;2.50;2.30;;;22.50;36.30;;;;;;5040121;28;20522;-48
2023/03/21 10:59:56;;;;;;;4.00;2.47;;;22.70;36.30;;;;;;5039844;28;20518;-45
2023/03/21 11:02:29;;;;;;;2.47;2.27;;;22.70;35.40;;;;;;5043979;28;20447;-45
2023/03/21 11:04:57;;;;;;;3.53;2.37;;;22.70;36.00;;;;;;5037884;28;20483;-45
2023/03/21 11:07:29;;;;;;;4.40;2.90;;;22.90;35.80;;;;;;5036007;28;20452;-46
2023/03/21 11:09:58;;;;;;;2.40;2.20;;;23.10;35.30;;;;;;5045181;28;20442;-46
2023/03/21 11:12:37;;;;;;;3.60;2.20;;;23.30;34.40;;;;;;5047172;28;20458;-45
2023/03/21 11:15:29;;;;;;;3.10;2.70;;;23.40;35.20;;;;;;5048788;28;20451;-46
2023/03/21 11:17:56;;;;;;;2.70;2.07;;;23.60;35.50;;;;;;5038906;28;20462;-45
2023/03/21 11:20:22;;;;;;;4.07;2.70;;;23.40;34.40;;;;;;5045366;28;20475;-45
2023/03/21 11:22:48;;;;;;;2.90;2.70;;;23.30;34.80;;;;;;5040646;28;20477;-46
2023/03/21 11:25:24;;;;;;;3.27;2.37;;;23.30;34.40;;;;;;5034642;28;20491;-46
2023/03/21 11:27:53;;;;;;;3.30;3.00;;;23.40;34.90;;;;;;5039719;28;20906;-46
2023/03/21 11:30:22;;;;;;;2.97;2.50;;;23.40;34.70;;;;;;5048465;28;20512;-46
2023/03/21 11:32:57;;;;;;;3.77;2.50;;;23.60;35.40;;;;;;5042508;28;20439;-45
2023/03/21 11:35:27;;;;;;;3.37;2.40;;;23.60;35.20;;;;;;5034843;28;20447;-46
2023/03/21 11:37:55;;;;;;;2.70;2.20;;;23.70;34.20;;;;;;5034764;28;20523;-46
2023/03/21 11:40:22;;;;;;;11.10;5.30;;;23.80;33.80;;;;;;5033721;28;20439;-47
2023/03/21 11:43:28;;;;;;;15.47;6.27;;;23.80;35.80;;;;;;5030307;28;20462;-46
2023/03/21 11:46:07;;;;;;;10.73;5.80;;;24.00;35.50;;;;;;5043357;28;20819;-46
2023/03/21 11:48:43;;;;;;;6.60;4.10;;;24.00;35.20;;;;;;5044312;28;20492;-45
2023/03/21 11:51:34;;;;;;;6.13;4.23;;;24.10;35.70;;;;;;5040257;28;20589;-45
2023/03/21 11:54:11;;;;;;;6.90;3.93;;;24.20;35.60;;;;;;5037212;28;20473;-46
2023/03/21 11:56:53;;;;;;;6.50;3.63;;;24.40;35.00;;;;;;5032422;28;20439;-45
2023/03/21 11:59:31;;;;;;;5.53;2.60;;;24.40;35.30;;;;;;5032009;28;20919;-45
2023/03/21 12:02:20;;;;;;;7.40;3.57;;;24.50;34.70;;;;;;5038839;28;20437;-46
2023/03/21 12:05:03;;;;;;;4.93;3.17;;;24.50;34.60;;;;;;5047888;28;20594;-45
2023/03/21 12:08:07;;;;;;;5.30;2.70;;;24.60;34.70;;;;;;5046567;28;20450;-45
2023/03/21 12:10:41;;;;;;;3.60;2.37;;;24.70;34.70;;;;;;5022994;28;20459;-46
2023/03/21 12:13:33;;;;;;;3.27;2.43;;;24.80;35.10;;;;;;5041630;28;20443;-46
2023/03/21 12:16:40;;;;;;;3.30;2.20;;;24.80;34.90;;;;;;5043745;28;20486;-47
2023/03/21 12:19:30;;;;;;;2.77;1.80;;;24.90;35.30;;;;;;5028087;28;20455;-46
2023/03/21 12:22:10;;;;;;;3.50;2.50;;;24.80;34.70;;;;;;5047849;28;22399;-46
2023/03/21 12:24:42;;;;;;;4.50;2.27;;;25.00;35.30;;;;;;5045930;28;20573;-45
2023/03/21 12:27:20;;;;;;;2.40;2.00;;;25.00;35.30;;;;;;5046440;28;20803;-46
2023/03/21 12:30:15;;;;;;;2.33;2.13;;;24.90;35.30;;;;;;5033334;28;20820;-46
2023/03/21 12:33:00;;;;;;;2.10;1.90;;;24.90;35.50;;;;;;5038668;28;20446;-48
2023/03/21 12:35:37;;;;;;;2.97;2.10;;;25.00;35.30;;;;;;5038034;28;20523;-46
2023/03/21 12:38:20;;;;;;;2.50;2.30;;;25.00;34.70;;;;;;5038896;28;21249;-46
2023/03/21 12:41:19;;;;;;;2.83;2.30;;;24.70;35.60;;;;;;5043900;28;20534;-46
2023/03/21 12:43:47;;;;;;;2.70;2.50;;;24.50;35.10;;;;;;5045870;28;20495;-45
2023/03/21 12:46:51;;;;;;;4.00;2.53;;;24.20;35.20;;;;;;5041324;28;20436;-45
2023/03/21 12:49:33;;;;;;;3.37;1.87;;;24.20;35.60;;;;;;5029014;28;20517;-45
2023/03/21 12:52:11;;;;;;;2.50;2.30;;;24.10;36.70;;;;;;5048706;28;20450;-45
2023/03/21 12:54:47;;;;;;;2.60;2.40;;;24.00;36.30;;;;;;5050402;28;20530;-46
2023/03/21 12:57:22;;;;;;;3.03;2.10;;;23.90;36.70;;;;;;5046385;28;20550;-45
2023/03/21 13:00:19;;;;;;;3.83;2.40;;;23.90;36.80;;;;;;5048425;28;20458;-47
2023/03/21 13:02:56;;;;;;;3.63;2.37;;;23.80;37.50;;;;;;5047536;28;20580;-47
2023/03/21 13:05:29;;;;;;;3.53;2.83;;;23.80;37.50;;;;;;5052877;28;20482;-46
2023/03/21 13:08:16;;;;;;;3.43;2.60;;;23.80;37.20;;;;;;5052311;28;20439;-45